sensor_id;sensor_type;location;lat;lon;timestamp;P1;durP1;ratioP1;P2;durP2;ratioP2
27333;SDS011;14817;57.104;-2.094;2022-09-20T00:01:24;2.88;;;1.20;;
27333;SDS011;14817;57.104;-2.094;2022-09-20T00:03:55;1.60;;;1.30;;
27333;SDS011;14817;57.104;-2.094;2022-09-20T00:06:24;2.60;;;1.23;;
27333;SDS011;14817;57.104;-2.094;2022-09-20T00:08:53;2.67;;;1.02;;
27333;SDS011;14817;57.104;-2.094;2022-09-20T00:11:21;0.90;;;0.75;;
27333;SDS011;14817;57.104;-2.094;2022-09-20T00:13:51;2.70;;;1.00;;
27333;SDS011;14817;57.104;-2.094;2022-09-20T00:16:24;2.05;;;0.90;;
27333;SDS011;14817;57.104;-2.094;2022-09-20T00:19:01;3.88;;;1.10;;
27333;SDS011;14817;57.104;-2.094;2022-09-20T00:21:30;1.95;;;0.75;;
27333;SDS011;14817;57.104;-2.094;2022-09-20T00:23:58;1.35;;;1.02;;
27333;SDS011;14817;57.104;-2.094;2022-09-20T00:26:25;1.20;;;1.00;;
27333;SDS011;14817;57.104;-2.094;2022-09-20T00:28:53;1.52;;;0.80;;
27333;SDS011;14817;57.104;-2.094;2022-09-20T00:31:21;1.73;;;1.10;;
27333;SDS011;14817;57.104;-2.094;2022-09-20T00:33:48;1.55;;;0.90;;
27333;SDS011;14817;57.104;-2.094;2022-09-20T00:36:34;1.10;;;0.77;;
27333;SDS011;14817;57.104;-2.094;2022-09-20T00:39:01;2.58;;;0.85;;
27333;SDS011;14817;57.104;-2.094;2022-09-20T00:41:29;2.00;;;1.27;;
27333;SDS011;14817;57.104;-2.094;2022-09-20T00:43:57;2.85;;;0.90;;
27333;SDS011;14817;57.104;-2.094;2022-09-20T00:46:32;1.30;;;0.85;;
27333;SDS011;14817;57.104;-2.094;2022-09-20T00:51:40;2.38;;;1.08;;
27333;SDS011;14817;57.104;-2.094;2022-09-20T00:54:11;1.88;;;1.20;;
27333;SDS011;14817;57.104;-2.094;2022-09-20T00:56:45;2.00;;;1.30;;
27333;SDS011;14817;57.104;-2.094;2022-09-20T00:59:15;1.00;;;0.90;;
27333;SDS011;14817;57.104;-2.094;2022-09-20T01:01:43;1.17;;;0.90;;
27333;SDS011;14817;57.104;-2.094;2022-09-20T01:06:41;2.10;;;1.70;;
27333;SDS011;14817;57.104;-2.094;2022-09-20T01:09:11;1.67;;;1.00;;
27333;SDS011;14817;57.104;-2.094;2022-09-20T01:11:38;3.05;;;1.27;;
27333;SDS011;14817;57.104;-2.094;2022-09-20T01:14:06;1.42;;;0.95;;
27333;SDS011;14817;57.104;-2.094;2022-09-20T01:16:33;1.35;;;1.13;;
27333;SDS011;14817;57.104;-2.094;2022-09-20T01:19:04;2.92;;;0.90;;
27333;SDS011;14817;57.104;-2.094;2022-09-20T01:21:40;1.98;;;1.20;;
27333;SDS011;14817;57.104;-2.094;2022-09-20T01:24:13;2.13;;;1.30;;
27333;SDS011;14817;57.104;-2.094;2022-09-20T01:30:19;2.10;;;1.15;;
27333;SDS011;14817;57.104;-2.094;2022-09-20T01:33:37;2.20;;;0.93;;
27333;SDS011;14817;57.104;-2.094;2022-09-20T01:35:43;2.92;;;1.73;;
27333;SDS011;14817;57.104;-2.094;2022-09-20T01:41:05;1.77;;;1.08;;
27333;SDS011;14817;57.104;-2.094;2022-09-20T01:43:40;2.35;;;1.50;;
27333;SDS011;14817;57.104;-2.094;2022-09-20T01:46:23;1.70;;;1.30;;
27333;SDS011;14817;57.104;-2.094;2022-09-20T02:08:44;2.35;;;1.17;;
27333;SDS011;14817;57.104;-2.094;2022-09-20T02:11:15;1.38;;;1.10;;
27333;SDS011;14817;57.104;-2.094;2022-09-20T02:14:01;1.55;;;1.05;;
27333;SDS011;14817;57.104;-2.094;2022-09-20T02:16:37;2.65;;;0.88;;
27333;SDS011;14817;57.104;-2.094;2022-09-20T02:32:28;1.95;;;1.15;;
27333;SDS011;14817;57.104;-2.094;2022-09-20T02:46:11;2.58;;;0.65;;
27333;SDS011;14817;57.104;-2.094;2022-09-20T02:48:53;0.98;;;0.82;;
27333;SDS011;14817;57.104;-2.094;2022-09-20T02:51:30;1.48;;;0.90;;
27333;SDS011;14817;57.104;-2.094;2022-09-20T02:54:26;1.75;;;1.10;;
27333;SDS011;14817;57.104;-2.094;2022-09-20T03:06:06;1.65;;;1.08;;
27333;SDS011;14817;57.104;-2.094;2022-09-20T03:11:26;1.80;;;1.10;;
27333;SDS011;14817;57.104;-2.094;2022-09-20T03:16:33;1.85;;;0.85;;
27333;SDS011;14817;57.104;-2.094;2022-09-20T03:29:58;1.92;;;1.05;;
27333;SDS011;14817;57.104;-2.094;2022-09-20T03:32:54;2.40;;;1.30;;
27333;SDS011;14817;57.104;-2.094;2022-09-20T03:46:26;1.55;;;1.00;;
27333;SDS011;14817;57.104;-2.094;2022-09-20T03:48:56;2.22;;;1.40;;
27333;SDS011;14817;57.104;-2.094;2022-09-20T03:51:34;2.70;;;1.30;;
27333;SDS011;14817;57.104;-2.094;2022-09-20T03:54:14;1.80;;;1.20;;
27333;SDS011;14817;57.104;-2.094;2022-09-20T03:59:54;2.03;;;1.20;;
27333;SDS011;14817;57.104;-2.094;2022-09-20T04:05:02;1.50;;;1.02;;
27333;SDS011;14817;57.104;-2.094;2022-09-20T04:07:56;3.22;;;1.30;;
27333;SDS011;14817;57.104;-2.094;2022-09-20T04:16:09;2.05;;;1.42;;
27333;SDS011;14817;57.104;-2.094;2022-09-20T04:19:15;1.85;;;1.40;;
27333;SDS011;14817;57.104;-2.094;2022-09-20T04:29:43;2.75;;;1.27;;
27333;SDS011;14817;57.104;-2.094;2022-09-20T04:32:28;1.90;;;1.25;;
27333;SDS011;14817;57.104;-2.094;2022-09-20T04:37:57;2.80;;;1.50;;
27333;SDS011;14817;57.104;-2.094;2022-09-20T04:40:42;3.13;;;1.30;;
27333;SDS011;14817;57.104;-2.094;2022-09-20T05:26:30;1.92;;;1.40;;
27333;SDS011;14817;57.104;-2.094;2022-09-20T05:29:22;5.82;;;3.03;;
27333;SDS011;14817;57.104;-2.094;2022-09-20T05:32:00;3.33;;;1.40;;
27333;SDS011;14817;57.104;-2.094;2022-09-20T05:34:40;4.55;;;1.48;;
27333;SDS011;14817;57.104;-2.094;2022-09-20T05:37:29;2.78;;;1.33;;
27333;SDS011;14817;57.104;-2.094;2022-09-20T05:40:04;1.98;;;1.50;;
27333;SDS011;14817;57.104;-2.094;2022-09-20T05:42:51;5.25;;;2.08;;
27333;SDS011;14817;57.104;-2.094;2022-09-20T05:45:32;1.88;;;1.15;;
27333;SDS011;14817;57.104;-2.094;2022-09-20T05:56:05;1.77;;;0.90;;
27333;SDS011;14817;57.104;-2.094;2022-09-20T05:59:02;1.52;;;1.00;;
27333;SDS011;14817;57.104;-2.094;2022-09-20T06:01:39;1.85;;;1.10;;
27333;SDS011;14817;57.104;-2.094;2022-09-20T06:04:41;7.13;;;1.80;;
27333;SDS011;14817;57.104;-2.094;2022-09-20T06:07:39;1.90;;;1.50;;
27333;SDS011;14817;57.104;-2.094;2022-09-20T06:21:06;2.88;;;1.60;;
27333;SDS011;14817;57.104;-2.094;2022-09-20T06:23:34;7.10;;;1.92;;
27333;SDS011;14817;57.104;-2.094;2022-09-20T06:26:03;2.28;;;1.20;;
27333;SDS011;14817;57.104;-2.094;2022-09-20T06:28:37;2.00;;;1.40;;
27333;SDS011;14817;57.104;-2.094;2022-09-20T06:31:08;2.10;;;1.52;;
27333;SDS011;14817;57.104;-2.094;2022-09-20T06:33:44;2.45;;;1.50;;
27333;SDS011;14817;57.104;-2.094;2022-09-20T06:36:18;1.92;;;1.30;;
27333;SDS011;14817;57.104;-2.094;2022-09-20T06:41:58;3.42;;;2.20;;
27333;SDS011;14817;57.104;-2.094;2022-09-20T06:44:25;2.00;;;1.40;;
27333;SDS011;14817;57.104;-2.094;2022-09-20T06:46:52;3.53;;;1.52;;
27333;SDS011;14817;57.104;-2.094;2022-09-20T06:49:19;2.47;;;1.80;;
27333;SDS011;14817;57.104;-2.094;2022-09-20T06:51:47;2.65;;;1.83;;
27333;SDS011;14817;57.104;-2.094;2022-09-20T06:54:18;4.23;;;2.00;;
27333;SDS011;14817;57.104;-2.094;2022-09-20T06:56:47;3.08;;;1.90;;
27333;SDS011;14817;57.104;-2.094;2022-09-20T06:59:16;2.60;;;1.90;;
27333;SDS011;14817;57.104;-2.094;2022-09-20T07:01:43;5.57;;;2.53;;
27333;SDS011;14817;57.104;-2.094;2022-09-20T07:04:10;5.45;;;1.70;;
27333;SDS011;14817;57.104;-2.094;2022-09-20T07:06:36;3.30;;;1.80;;
27333;SDS011;14817;57.104;-2.094;2022-09-20T07:09:03;4.40;;;1.92;;
27333;SDS011;14817;57.104;-2.094;2022-09-20T07:11:31;4.28;;;2.30;;
27333;SDS011;14817;57.104;-2.094;2022-09-20T07:13:59;3.28;;;2.08;;
27333;SDS011;14817;57.104;-2.094;2022-09-20T07:16:26;2.88;;;1.58;;
27333;SDS011;14817;57.104;-2.094;2022-09-20T07:18:53;3.00;;;1.50;;
27333;SDS011;14817;57.104;-2.094;2022-09-20T07:21:22;4.15;;;2.28;;
27333;SDS011;14817;57.104;-2.094;2022-09-20T07:23:49;4.63;;;2.35;;
27333;SDS011;14817;57.104;-2.094;2022-09-20T07:26:21;2.25;;;1.88;;
27333;SDS011;14817;57.104;-2.094;2022-09-20T07:28:53;2.67;;;1.70;;
27333;SDS011;14817;57.104;-2.094;2022-09-20T07:31:21;2.17;;;1.80;;
27333;SDS011;14817;57.104;-2.094;2022-09-20T07:33:49;2.25;;;1.88;;
27333;SDS011;14817;57.104;-2.094;2022-09-20T07:36:17;4.70;;;2.33;;
27333;SDS011;14817;57.104;-2.094;2022-09-20T07:38:50;2.40;;;1.50;;
27333;SDS011;14817;57.104;-2.094;2022-09-20T07:41:19;2.63;;;1.70;;
27333;SDS011;14817;57.104;-2.094;2022-09-20T07:43:48;2.20;;;1.65;;
27333;SDS011;14817;57.104;-2.094;2022-09-20T07:46:16;2.35;;;1.58;;
27333;SDS011;14817;57.104;-2.094;2022-09-20T07:48:43;2.63;;;1.42;;
27333;SDS011;14817;57.104;-2.094;2022-09-20T07:51:10;2.05;;;1.60;;
27333;SDS011;14817;57.104;-2.094;2022-09-20T07:53:38;4.22;;;1.70;;
27333;SDS011;14817;57.104;-2.094;2022-09-20T07:56:10;2.60;;;1.77;;
27333;SDS011;14817;57.104;-2.094;2022-09-20T07:58:39;2.08;;;1.65;;
27333;SDS011;14817;57.104;-2.094;2022-09-20T08:01:08;1.80;;;1.48;;
27333;SDS011;14817;57.104;-2.094;2022-09-20T08:03:36;2.75;;;2.15;;
27333;SDS011;14817;57.104;-2.094;2022-09-20T08:06:05;2.80;;;1.60;;
27333;SDS011;14817;57.104;-2.094;2022-09-20T08:08:34;2.90;;;1.40;;
27333;SDS011;14817;57.104;-2.094;2022-09-20T08:11:06;2.47;;;1.58;;
27333;SDS011;14817;57.104;-2.094;2022-09-20T08:13:38;2.63;;;1.65;;
27333;SDS011;14817;57.104;-2.094;2022-09-20T08:16:27;4.53;;;2.65;;
27333;SDS011;14817;57.104;-2.094;2022-09-20T08:18:56;4.50;;;2.15;;
27333;SDS011;14817;57.104;-2.094;2022-09-20T08:21:26;2.78;;;1.70;;
27333;SDS011;14817;57.104;-2.094;2022-09-20T08:23:57;4.30;;;1.80;;
27333;SDS011;14817;57.104;-2.094;2022-09-20T08:26:25;5.97;;;1.77;;
27333;SDS011;14817;57.104;-2.094;2022-09-20T08:28:54;3.13;;;1.58;;
27333;SDS011;14817;57.104;-2.094;2022-09-20T08:31:24;2.42;;;1.73;;
27333;SDS011;14817;57.104;-2.094;2022-09-20T08:33:52;2.97;;;2.03;;
27333;SDS011;14817;57.104;-2.094;2022-09-20T08:36:21;2.30;;;1.73;;
27333;SDS011;14817;57.104;-2.094;2022-09-20T08:38:50;5.88;;;1.80;;
27333;SDS011;14817;57.104;-2.094;2022-09-20T08:41:54;3.83;;;1.63;;
27333;SDS011;14817;57.104;-2.094;2022-09-20T08:44:45;1.95;;;1.10;;
27333;SDS011;14817;57.104;-2.094;2022-09-20T08:47:26;2.05;;;1.40;;
27333;SDS011;14817;57.104;-2.094;2022-09-20T08:49:56;2.22;;;1.55;;
27333;SDS011;14817;57.104;-2.094;2022-09-20T08:52:33;1.95;;;1.27;;
27333;SDS011;14817;57.104;-2.094;2022-09-20T08:55:14;1.60;;;1.27;;
27333;SDS011;14817;57.104;-2.094;2022-09-20T08:57:43;2.63;;;1.55;;
27333;SDS011;14817;57.104;-2.094;2022-09-20T09:02:50;3.42;;;1.98;;
27333;SDS011;14817;57.104;-2.094;2022-09-20T09:08:10;1.55;;;1.10;;
27333;SDS011;14817;57.104;-2.094;2022-09-20T09:10:50;2.00;;;1.50;;
27333;SDS011;14817;57.104;-2.094;2022-09-20T09:14:06;5.55;;;1.83;;
27333;SDS011;14817;57.104;-2.094;2022-09-20T09:16:19;1.92;;;1.13;;
27333;SDS011;14817;57.104;-2.094;2022-09-20T09:19:24;2.17;;;1.47;;
27333;SDS011;14817;57.104;-2.094;2022-09-20T09:21:55;2.92;;;2.05;;
27333;SDS011;14817;57.104;-2.094;2022-09-20T09:24:23;6.20;;;2.30;;
27333;SDS011;14817;57.104;-2.094;2022-09-20T09:26:52;5.65;;;2.30;;
27333;SDS011;14817;57.104;-2.094;2022-09-20T09:29:49;7.43;;;2.28;;
27333;SDS011;14817;57.104;-2.094;2022-09-20T09:32:21;6.70;;;2.15;;
27333;SDS011;14817;57.104;-2.094;2022-09-20T09:34:49;8.10;;;2.75;;
27333;SDS011;14817;57.104;-2.094;2022-09-20T09:37:26;6.25;;;2.70;;
27333;SDS011;14817;57.104;-2.094;2022-09-20T09:40:12;5.57;;;2.35;;
27333;SDS011;14817;57.104;-2.094;2022-09-20T09:42:51;7.05;;;3.15;;
27333;SDS011;14817;57.104;-2.094;2022-09-20T09:48:17;5.70;;;2.35;;
27333;SDS011;14817;57.104;-2.094;2022-09-20T09:51:12;5.95;;;2.25;;
27333;SDS011;14817;57.104;-2.094;2022-09-20T09:53:41;5.65;;;2.30;;
27333;SDS011;14817;57.104;-2.094;2022-09-20T09:59:06;5.43;;;2.40;;
27333;SDS011;14817;57.104;-2.094;2022-09-20T10:10:45;4.88;;;2.40;;
27333;SDS011;14817;57.104;-2.094;2022-09-20T10:16:18;5.82;;;3.30;;
27333;SDS011;14817;57.104;-2.094;2022-09-20T10:19:36;7.20;;;2.45;;
27333;SDS011;14817;57.104;-2.094;2022-09-20T10:21:59;4.65;;;2.60;;
27333;SDS011;14817;57.104;-2.094;2022-09-20T10:24:32;7.75;;;2.70;;
27333;SDS011;14817;57.104;-2.094;2022-09-20T10:27:39;8.33;;;2.43;;
27333;SDS011;14817;57.104;-2.094;2022-09-20T10:30:22;4.75;;;1.83;;
27333;SDS011;14817;57.104;-2.094;2022-09-20T10:38:40;6.20;;;2.20;;
27333;SDS011;14817;57.104;-2.094;2022-09-20T10:47:33;2.10;;;1.80;;
27333;SDS011;14817;57.104;-2.094;2022-09-20T10:53:17;5.00;;;2.03;;
27333;SDS011;14817;57.104;-2.094;2022-09-20T10:56:15;3.88;;;2.00;;
27333;SDS011;14817;57.104;-2.094;2022-09-20T11:01:40;3.95;;;1.60;;
27333;SDS011;14817;57.104;-2.094;2022-09-20T11:10:05;3.58;;;1.80;;
27333;SDS011;14817;57.104;-2.094;2022-09-20T11:12:47;3.58;;;2.00;;
27333;SDS011;14817;57.104;-2.094;2022-09-20T11:15:37;3.17;;;2.03;;
27333;SDS011;14817;57.104;-2.094;2022-09-20T11:20:56;6.88;;;2.28;;
27333;SDS011;14817;57.104;-2.094;2022-09-20T11:26:10;5.60;;;1.67;;
27333;SDS011;14817;57.104;-2.094;2022-09-20T11:36:37;3.60;;;1.70;;
27333;SDS011;14817;57.104;-2.094;2022-09-20T11:39:57;3.47;;;1.77;;
27333;SDS011;14817;57.104;-2.094;2022-09-20T11:42:31;4.95;;;1.90;;
27333;SDS011;14817;57.104;-2.094;2022-09-20T11:45:02;3.47;;;1.52;;
27333;SDS011;14817;57.104;-2.094;2022-09-20T11:47:38;4.80;;;2.30;;
27333;SDS011;14817;57.104;-2.094;2022-09-20T11:58:25;4.47;;;2.00;;
27333;SDS011;14817;57.104;-2.094;2022-09-20T12:00:54;4.10;;;1.50;;
27333;SDS011;14817;57.104;-2.094;2022-09-20T12:06:03;4.75;;;1.83;;
27333;SDS011;14817;57.104;-2.094;2022-09-20T12:08:33;3.25;;;1.80;;
27333;SDS011;14817;57.104;-2.094;2022-09-20T12:13:38;4.25;;;2.63;;
27333;SDS011;14817;57.104;-2.094;2022-09-20T12:21:05;4.05;;;2.38;;
27333;SDS011;14817;57.104;-2.094;2022-09-20T12:23:45;4.10;;;2.60;;
27333;SDS011;14817;57.104;-2.094;2022-09-20T12:34:02;3.90;;;2.28;;
27333;SDS011;14817;57.104;-2.094;2022-09-20T12:36:32;4.28;;;2.10;;
27333;SDS011;14817;57.104;-2.094;2022-09-20T12:52:39;8.00;;;2.90;;
27333;SDS011;14817;57.104;-2.094;2022-09-20T13:00:35;8.05;;;2.55;;
27333;SDS011;14817;57.104;-2.094;2022-09-20T13:03:23;3.33;;;2.40;;
27333;SDS011;14817;57.104;-2.094;2022-09-20T13:11:41;4.05;;;2.05;;
27333;SDS011;14817;57.104;-2.094;2022-09-20T13:14:22;7.38;;;2.67;;
27333;SDS011;14817;57.104;-2.094;2022-09-20T13:16:58;6.78;;;2.80;;
27333;SDS011;14817;57.104;-2.094;2022-09-20T13:19:34;8.00;;;2.85;;
27333;SDS011;14817;57.104;-2.094;2022-09-20T13:22:13;7.20;;;2.97;;
27333;SDS011;14817;57.104;-2.094;2022-09-20T13:24:55;4.35;;;2.42;;
27333;SDS011;14817;57.104;-2.094;2022-09-20T13:27:24;4.43;;;2.58;;
27333;SDS011;14817;57.104;-2.094;2022-09-20T13:29:55;3.78;;;2.40;;
27333;SDS011;14817;57.104;-2.094;2022-09-20T13:32:35;4.57;;;2.78;;
27333;SDS011;14817;57.104;-2.094;2022-09-20T13:37:33;8.02;;;2.40;;
27333;SDS011;14817;57.104;-2.094;2022-09-20T13:40:15;4.85;;;2.40;;
27333;SDS011;14817;57.104;-2.094;2022-09-20T13:42:45;5.20;;;2.17;;
27333;SDS011;14817;57.104;-2.094;2022-09-20T13:45:13;4.35;;;2.38;;
27333;SDS011;14817;57.104;-2.094;2022-09-20T13:47:52;5.03;;;2.78;;
27333;SDS011;14817;57.104;-2.094;2022-09-20T13:50:22;8.45;;;2.75;;
27333;SDS011;14817;57.104;-2.094;2022-09-20T13:52:56;4.20;;;2.35;;
27333;SDS011;14817;57.104;-2.094;2022-09-20T13:55:35;3.53;;;2.75;;
27333;SDS011;14817;57.104;-2.094;2022-09-20T14:00:58;7.45;;;3.10;;
27333;SDS011;14817;57.104;-2.094;2022-09-20T14:03:27;7.10;;;3.10;;
27333;SDS011;14817;57.104;-2.094;2022-09-20T14:05:57;6.13;;;3.58;;
27333;SDS011;14817;57.104;-2.094;2022-09-20T14:08:27;6.97;;;3.53;;
27333;SDS011;14817;57.104;-2.094;2022-09-20T14:11:05;7.22;;;3.75;;
27333;SDS011;14817;57.104;-2.094;2022-09-20T14:13:38;7.60;;;3.85;;
27333;SDS011;14817;57.104;-2.094;2022-09-20T14:16:07;4.38;;;2.92;;
27333;SDS011;14817;57.104;-2.094;2022-09-20T14:18:35;6.32;;;3.53;;
27333;SDS011;14817;57.104;-2.094;2022-09-20T14:21:06;5.15;;;3.47;;
27333;SDS011;14817;57.104;-2.094;2022-09-20T14:23:47;8.18;;;3.80;;
27333;SDS011;14817;57.104;-2.094;2022-09-20T14:26:21;5.90;;;3.15;;
27333;SDS011;14817;57.104;-2.094;2022-09-20T14:28:51;9.68;;;4.32;;
27333;SDS011;14817;57.104;-2.094;2022-09-20T14:31:24;8.00;;;4.53;;
27333;SDS011;14817;57.104;-2.094;2022-09-20T14:33:55;8.77;;;3.85;;
27333;SDS011;14817;57.104;-2.094;2022-09-20T14:36:26;9.73;;;4.93;;
27333;SDS011;14817;57.104;-2.094;2022-09-20T14:38:55;7.00;;;4.35;;
27333;SDS011;14817;57.104;-2.094;2022-09-20T14:41:34;5.07;;;3.72;;
27333;SDS011;14817;57.104;-2.094;2022-09-20T14:44:04;4.80;;;3.70;;
27333;SDS011;14817;57.104;-2.094;2022-09-20T14:46:43;8.82;;;4.10;;
27333;SDS011;14817;57.104;-2.094;2022-09-20T14:51:52;7.63;;;4.43;;
27333;SDS011;14817;57.104;-2.094;2022-09-20T14:56:56;5.45;;;3.97;;
27333;SDS011;14817;57.104;-2.094;2022-09-20T14:59:25;10.85;;;4.88;;
27333;SDS011;14817;57.104;-2.094;2022-09-20T15:01:58;6.88;;;4.13;;
27333;SDS011;14817;57.104;-2.094;2022-09-20T15:04:36;8.75;;;4.18;;
27333;SDS011;14817;57.104;-2.094;2022-09-20T15:07:06;12.63;;;4.97;;
27333;SDS011;14817;57.104;-2.094;2022-09-20T15:09:36;9.15;;;4.70;;
27333;SDS011;14817;57.104;-2.094;2022-09-20T15:12:10;6.57;;;4.50;;
27333;SDS011;14817;57.104;-2.094;2022-09-20T15:14:38;7.07;;;4.10;;
27333;SDS011;14817;57.104;-2.094;2022-09-20T15:17:09;8.80;;;4.72;;
27333;SDS011;14817;57.104;-2.094;2022-09-20T15:19:40;7.47;;;4.25;;
27333;SDS011;14817;57.104;-2.094;2022-09-20T15:22:08;9.13;;;5.38;;
27333;SDS011;14817;57.104;-2.094;2022-09-20T15:24:35;16.63;;;8.95;;
27333;SDS011;14817;57.104;-2.094;2022-09-20T15:27:02;8.45;;;4.40;;
27333;SDS011;14817;57.104;-2.094;2022-09-20T15:29:30;5.90;;;3.92;;
27333;SDS011;14817;57.104;-2.094;2022-09-20T15:31:56;5.57;;;3.38;;
27333;SDS011;14817;57.104;-2.094;2022-09-20T15:34:23;5.70;;;3.28;;
27333;SDS011;14817;57.104;-2.094;2022-09-20T15:36:51;6.82;;;3.47;;
27333;SDS011;14817;57.104;-2.094;2022-09-20T15:39:19;5.75;;;3.00;;
27333;SDS011;14817;57.104;-2.094;2022-09-20T15:41:49;5.18;;;2.85;;
27333;SDS011;14817;57.104;-2.094;2022-09-20T15:44:17;7.70;;;3.97;;
27333;SDS011;14817;57.104;-2.094;2022-09-20T15:46:44;7.03;;;3.63;;
27333;SDS011;14817;57.104;-2.094;2022-09-20T15:49:11;6.45;;;3.05;;
27333;SDS011;14817;57.104;-2.094;2022-09-20T15:51:38;5.20;;;2.85;;
27333;SDS011;14817;57.104;-2.094;2022-09-20T15:54:05;5.65;;;3.33;;
27333;SDS011;14817;57.104;-2.094;2022-09-20T15:56:33;3.97;;;2.47;;
27333;SDS011;14817;57.104;-2.094;2022-09-20T15:59:03;15.65;;;9.80;;
27333;SDS011;14817;57.104;-2.094;2022-09-20T16:01:33;7.50;;;3.55;;
27333;SDS011;14817;57.104;-2.094;2022-09-20T16:04:06;4.20;;;3.30;;
27333;SDS011;14817;57.104;-2.094;2022-09-20T16:06:35;4.90;;;3.25;;
27333;SDS011;14817;57.104;-2.094;2022-09-20T16:09:03;6.38;;;2.83;;
27333;SDS011;14817;57.104;-2.094;2022-09-20T16:11:30;6.47;;;3.60;;
27333;SDS011;14817;57.104;-2.094;2022-09-20T16:13:58;5.70;;;3.97;;
27333;SDS011;14817;57.104;-2.094;2022-09-20T16:16:26;6.75;;;4.45;;
27333;SDS011;14817;57.104;-2.094;2022-09-20T16:18:54;10.25;;;4.10;;
27333;SDS011;14817;57.104;-2.094;2022-09-20T16:21:41;10.32;;;5.43;;
27333;SDS011;14817;57.104;-2.094;2022-09-20T16:24:25;9.05;;;5.05;;
27333;SDS011;14817;57.104;-2.094;2022-09-20T16:27:02;10.05;;;5.45;;
27333;SDS011;14817;57.104;-2.094;2022-09-20T16:29:31;9.55;;;5.05;;
27333;SDS011;14817;57.104;-2.094;2022-09-20T16:31:59;8.30;;;5.22;;
27333;SDS011;14817;57.104;-2.094;2022-09-20T16:34:28;52.30;;;20.88;;
27333;SDS011;14817;57.104;-2.094;2022-09-20T16:37:00;6.93;;;5.57;;
27333;SDS011;14817;57.104;-2.094;2022-09-20T16:39:29;8.40;;;5.35;;
27333;SDS011;14817;57.104;-2.094;2022-09-20T16:41:59;7.50;;;4.90;;
27333;SDS011;14817;57.104;-2.094;2022-09-20T16:44:29;10.27;;;5.97;;
27333;SDS011;14817;57.104;-2.094;2022-09-20T16:46:57;8.60;;;6.45;;
27333;SDS011;14817;57.104;-2.094;2022-09-20T16:49:24;12.85;;;6.50;;
27333;SDS011;14817;57.104;-2.094;2022-09-20T16:51:54;27.05;;;12.50;;
27333;SDS011;14817;57.104;-2.094;2022-09-20T16:54:21;12.80;;;6.03;;
27333;SDS011;14817;57.104;-2.094;2022-09-20T16:56:49;9.18;;;5.35;;
27333;SDS011;14817;57.104;-2.094;2022-09-20T16:59:17;8.35;;;4.88;;
27333;SDS011;14817;57.104;-2.094;2022-09-20T17:01:47;8.68;;;5.65;;
27333;SDS011;14817;57.104;-2.094;2022-09-20T17:04:15;6.60;;;5.03;;
27333;SDS011;14817;57.104;-2.094;2022-09-20T17:06:43;9.75;;;6.03;;
27333;SDS011;14817;57.104;-2.094;2022-09-20T17:09:11;8.00;;;4.90;;
27333;SDS011;14817;57.104;-2.094;2022-09-20T17:11:40;8.10;;;5.40;;
27333;SDS011;14817;57.104;-2.094;2022-09-20T17:14:11;11.40;;;5.10;;
27333;SDS011;14817;57.104;-2.094;2022-09-20T17:16:39;10.18;;;5.15;;
27333;SDS011;14817;57.104;-2.094;2022-09-20T17:19:08;7.55;;;5.28;;
27333;SDS011;14817;57.104;-2.094;2022-09-20T17:21:37;9.00;;;5.18;;
27333;SDS011;14817;57.104;-2.094;2022-09-20T17:24:06;11.23;;;5.05;;
27333;SDS011;14817;57.104;-2.094;2022-09-20T17:26:34;10.75;;;4.95;;
27333;SDS011;14817;57.104;-2.094;2022-09-20T17:29:04;7.70;;;4.78;;
27333;SDS011;14817;57.104;-2.094;2022-09-20T17:31:33;5.78;;;3.67;;
27333;SDS011;14817;57.104;-2.094;2022-09-20T17:34:03;8.45;;;3.90;;
27333;SDS011;14817;57.104;-2.094;2022-09-20T17:36:34;13.90;;;4.30;;
27333;SDS011;14817;57.104;-2.094;2022-09-20T17:39:04;7.32;;;3.85;;
27333;SDS011;14817;57.104;-2.094;2022-09-20T17:41:32;8.38;;;3.97;;
27333;SDS011;14817;57.104;-2.094;2022-09-20T17:43:59;6.00;;;3.08;;
27333;SDS011;14817;57.104;-2.094;2022-09-20T17:46:28;7.28;;;3.47;;
27333;SDS011;14817;57.104;-2.094;2022-09-20T17:48:57;5.53;;;3.42;;
27333;SDS011;14817;57.104;-2.094;2022-09-20T17:51:31;5.55;;;3.42;;
27333;SDS011;14817;57.104;-2.094;2022-09-20T17:54:00;6.25;;;3.35;;
27333;SDS011;14817;57.104;-2.094;2022-09-20T17:56:27;7.07;;;2.83;;
27333;SDS011;14817;57.104;-2.094;2022-09-20T17:59:00;7.47;;;3.28;;
27333;SDS011;14817;57.104;-2.094;2022-09-20T18:01:29;5.93;;;2.50;;
27333;SDS011;14817;57.104;-2.094;2022-09-20T18:03:58;7.25;;;3.13;;
27333;SDS011;14817;57.104;-2.094;2022-09-20T18:06:26;4.03;;;2.63;;
27333;SDS011;14817;57.104;-2.094;2022-09-20T18:08:56;5.22;;;2.70;;
27333;SDS011;14817;57.104;-2.094;2022-09-20T18:11:28;6.80;;;2.90;;
27333;SDS011;14817;57.104;-2.094;2022-09-20T18:13:57;3.85;;;2.42;;
27333;SDS011;14817;57.104;-2.094;2022-09-20T18:16:25;6.32;;;2.83;;
27333;SDS011;14817;57.104;-2.094;2022-09-20T18:18:52;4.45;;;2.45;;
27333;SDS011;14817;57.104;-2.094;2022-09-20T18:21:20;10.38;;;3.33;;
27333;SDS011;14817;57.104;-2.094;2022-09-20T18:23:49;6.22;;;2.83;;
27333;SDS011;14817;57.104;-2.094;2022-09-20T18:26:20;4.25;;;2.33;;
27333;SDS011;14817;57.104;-2.094;2022-09-20T18:28:52;4.57;;;2.90;;
27333;SDS011;14817;57.104;-2.094;2022-09-20T18:31:24;7.65;;;3.10;;
27333;SDS011;14817;57.104;-2.094;2022-09-20T18:33:53;6.13;;;3.13;;
27333;SDS011;14817;57.104;-2.094;2022-09-20T18:36:21;5.88;;;2.90;;
27333;SDS011;14817;57.104;-2.094;2022-09-20T18:38:51;6.10;;;2.63;;
27333;SDS011;14817;57.104;-2.094;2022-09-20T18:41:20;4.18;;;2.72;;
27333;SDS011;14817;57.104;-2.094;2022-09-20T18:43:49;5.25;;;2.63;;
27333;SDS011;14817;57.104;-2.094;2022-09-20T18:46:16;4.63;;;2.47;;
27333;SDS011;14817;57.104;-2.094;2022-09-20T18:48:56;5.03;;;2.60;;
27333;SDS011;14817;57.104;-2.094;2022-09-20T18:51:25;5.43;;;2.80;;
27333;SDS011;14817;57.104;-2.094;2022-09-20T18:53:56;5.13;;;2.38;;
27333;SDS011;14817;57.104;-2.094;2022-09-20T18:56:24;4.15;;;2.05;;
27333;SDS011;14817;57.104;-2.094;2022-09-20T18:58:56;3.42;;;2.10;;
27333;SDS011;14817;57.104;-2.094;2022-09-20T19:26:42;8.93;;;3.28;;
27333;SDS011;14817;57.104;-2.094;2022-09-20T19:29:17;8.48;;;2.72;;
27333;SDS011;14817;57.104;-2.094;2022-09-20T19:31:46;5.97;;;2.90;;
27333;SDS011;14817;57.104;-2.094;2022-09-20T19:34:16;3.95;;;2.30;;
27333;SDS011;14817;57.104;-2.094;2022-09-20T19:50:44;2.78;;;1.30;;
27333;SDS011;14817;57.104;-2.094;2022-09-20T19:53:15;4.43;;;1.70;;
27333;SDS011;14817;57.104;-2.094;2022-09-20T19:55:45;4.10;;;1.98;;
27333;SDS011;14817;57.104;-2.094;2022-09-20T19:58:13;4.90;;;2.20;;
27333;SDS011;14817;57.104;-2.094;2022-09-20T20:00:44;2.17;;;1.38;;
27333;SDS011;14817;57.104;-2.094;2022-09-20T20:03:13;5.13;;;2.53;;
27333;SDS011;14817;57.104;-2.094;2022-09-20T20:05:41;2.70;;;1.67;;
27333;SDS011;14817;57.104;-2.094;2022-09-20T20:11:33;5.15;;;2.35;;
27333;SDS011;14817;57.104;-2.094;2022-09-20T20:19:18;4.82;;;1.70;;
27333;SDS011;14817;57.104;-2.094;2022-09-20T20:25:08;2.53;;;1.50;;
27333;SDS011;14817;57.104;-2.094;2022-09-20T20:27:47;3.13;;;1.48;;
27333;SDS011;14817;57.104;-2.094;2022-09-20T20:30:14;2.35;;;1.15;;
27333;SDS011;14817;57.104;-2.094;2022-09-20T20:32:41;17.95;;;9.23;;
27333;SDS011;14817;57.104;-2.094;2022-09-20T20:35:07;3.85;;;1.77;;
27333;SDS011;14817;57.104;-2.094;2022-09-20T20:37:37;2.28;;;1.50;;
27333;SDS011;14817;57.104;-2.094;2022-09-20T20:40:05;3.78;;;1.60;;
27333;SDS011;14817;57.104;-2.094;2022-09-20T20:42:33;2.10;;;1.35;;
27333;SDS011;14817;57.104;-2.094;2022-09-20T20:45:02;3.00;;;1.40;;
27333;SDS011;14817;57.104;-2.094;2022-09-20T20:47:29;3.03;;;1.60;;
27333;SDS011;14817;57.104;-2.094;2022-09-20T20:49:56;3.42;;;1.60;;
27333;SDS011;14817;57.104;-2.094;2022-09-20T20:52:22;3.78;;;1.50;;
27333;SDS011;14817;57.104;-2.094;2022-09-20T20:54:49;2.33;;;1.30;;
27333;SDS011;14817;57.104;-2.094;2022-09-20T20:57:16;2.75;;;1.50;;
27333;SDS011;14817;57.104;-2.094;2022-09-20T20:59:44;3.05;;;1.55;;